sensor_id;sensor_type;location;lat;lon;timestamp;P1;durP1;ratioP1;P2;durP2;ratioP2
46561;SDS011;32289;42.688;23.330;2022-10-31T00:03:25;8.70;;;2.30;;
46561;SDS011;32289;42.688;23.330;2022-10-31T00:07:06;4.30;;;2.05;;
46561;SDS011;32289;42.688;23.330;2022-10-31T00:10:47;4.68;;;2.13;;
46561;SDS011;32289;42.688;23.330;2022-10-31T00:14:27;6.70;;;1.70;;
46561;SDS011;32289;42.688;23.330;2022-10-31T00:18:08;3.08;;;1.90;;
46561;SDS011;32289;42.688;23.330;2022-10-31T00:21:53;4.85;;;1.88;;
46561;SDS011;32289;42.688;23.330;2022-10-31T00:25:35;5.45;;;2.20;;
46561;SDS011;32289;42.688;23.330;2022-10-31T00:29:17;6.25;;;2.08;;
46561;SDS011;32289;42.688;23.330;2022-10-31T00:32:58;4.28;;;2.22;;
46561;SDS011;32289;42.688;23.330;2022-10-31T00:36:38;4.95;;;2.03;;
46561;SDS011;32289;42.688;23.330;2022-10-31T00:40:19;5.28;;;1.95;;
46561;SDS011;32289;42.688;23.330;2022-10-31T00:44:00;3.55;;;1.73;;
46561;SDS011;32289;42.688;23.330;2022-10-31T00:47:42;6.85;;;2.13;;
46561;SDS011;32289;42.688;23.330;2022-10-31T00:51:23;5.43;;;1.77;;
46561;SDS011;32289;42.688;23.330;2022-10-31T00:55:03;2.75;;;1.45;;
46561;SDS011;32289;42.688;23.330;2022-10-31T00:58:44;3.95;;;1.73;;
46561;SDS011;32289;42.688;23.330;2022-10-31T01:02:25;3.05;;;1.85;;
46561;SDS011;32289;42.688;23.330;2022-10-31T01:06:07;5.07;;;1.77;;
46561;SDS011;32289;42.688;23.330;2022-10-31T01:09:49;4.15;;;2.08;;
46561;SDS011;32289;42.688;23.330;2022-10-31T01:13:30;5.35;;;1.95;;
46561;SDS011;32289;42.688;23.330;2022-10-31T01:17:11;3.97;;;2.05;;
46561;SDS011;32289;42.688;23.330;2022-10-31T01:21:00;4.00;;;1.90;;
46561;SDS011;32289;42.688;23.330;2022-10-31T01:24:52;3.53;;;1.83;;
46561;SDS011;32289;42.688;23.330;2022-10-31T01:28:33;7.07;;;2.47;;
46561;SDS011;32289;42.688;23.330;2022-10-31T01:32:15;4.78;;;2.08;;
46561;SDS011;32289;42.688;23.330;2022-10-31T01:35:56;3.70;;;1.98;;
46561;SDS011;32289;42.688;23.330;2022-10-31T01:39:37;5.43;;;2.28;;
46561;SDS011;32289;42.688;23.330;2022-10-31T01:43:18;4.15;;;2.00;;
46561;SDS011;32289;42.688;23.330;2022-10-31T01:47:04;5.40;;;2.20;;
46561;SDS011;32289;42.688;23.330;2022-10-31T01:50:57;6.82;;;2.85;;
46561;SDS011;32289;42.688;23.330;2022-10-31T01:54:39;5.45;;;3.33;;
46561;SDS011;32289;42.688;23.330;2022-10-31T01:58:24;7.55;;;3.17;;
46561;SDS011;32289;42.688;23.330;2022-10-31T02:02:08;6.43;;;2.90;;
46561;SDS011;32289;42.688;23.330;2022-10-31T02:05:49;5.13;;;2.70;;
46561;SDS011;32289;42.688;23.330;2022-10-31T02:09:33;5.88;;;3.22;;
46561;SDS011;32289;42.688;23.330;2022-10-31T02:13:15;5.90;;;2.90;;
46561;SDS011;32289;42.688;23.330;2022-10-31T02:16:56;5.97;;;2.95;;
46561;SDS011;32289;42.688;23.330;2022-10-31T02:21:23;7.20;;;2.85;;
46561;SDS011;32289;42.688;23.330;2022-10-31T02:25:07;12.07;;;3.22;;
46561;SDS011;32289;42.688;23.330;2022-10-31T02:36:57;8.75;;;4.47;;
46561;SDS011;32289;42.688;23.330;2022-10-31T02:44:29;8.10;;;3.50;;
46561;SDS011;32289;42.688;23.330;2022-10-31T02:48:13;12.88;;;4.05;;
46561;SDS011;32289;42.688;23.330;2022-10-31T02:51:59;10.23;;;3.50;;
46561;SDS011;32289;42.688;23.330;2022-10-31T02:55:48;7.13;;;3.30;;
46561;SDS011;32289;42.688;23.330;2022-10-31T02:59:46;7.18;;;3.42;;
46561;SDS011;32289;42.688;23.330;2022-10-31T03:11:29;5.55;;;3.50;;
46561;SDS011;32289;42.688;23.330;2022-10-31T03:15:24;9.43;;;4.45;;
46561;SDS011;32289;42.688;23.330;2022-10-31T03:19:15;5.53;;;3.25;;
46561;SDS011;32289;42.688;23.330;2022-10-31T03:23:04;6.68;;;3.28;;
46561;SDS011;32289;42.688;23.330;2022-10-31T03:26:49;10.85;;;3.97;;
46561;SDS011;32289;42.688;23.330;2022-10-31T03:30:33;5.25;;;2.85;;
46561;SDS011;32289;42.688;23.330;2022-10-31T03:34:18;12.73;;;3.58;;
46561;SDS011;32289;42.688;23.330;2022-10-31T03:38:00;8.25;;;3.58;;
46561;SDS011;32289;42.688;23.330;2022-10-31T03:41:44;9.38;;;4.35;;
46561;SDS011;32289;42.688;23.330;2022-10-31T03:45:30;7.53;;;3.42;;
46561;SDS011;32289;42.688;23.330;2022-10-31T03:49:12;9.10;;;4.28;;
46561;SDS011;32289;42.688;23.330;2022-10-31T03:56:40;8.77;;;3.53;;
46561;SDS011;32289;42.688;23.330;2022-10-31T04:00:33;6.22;;;3.22;;
46561;SDS011;32289;42.688;23.330;2022-10-31T04:04:17;7.95;;;3.25;;
46561;SDS011;32289;42.688;23.330;2022-10-31T04:08:00;9.65;;;3.70;;
46561;SDS011;32289;42.688;23.330;2022-10-31T04:11:45;9.00;;;4.10;;
46561;SDS011;32289;42.688;23.330;2022-10-31T04:15:30;9.40;;;3.38;;
46561;SDS011;32289;42.688;23.330;2022-10-31T04:19:12;6.45;;;3.60;;
46561;SDS011;32289;42.688;23.330;2022-10-31T04:22:54;9.35;;;4.07;;
46561;SDS011;32289;42.688;23.330;2022-10-31T04:26:35;6.95;;;3.55;;
46561;SDS011;32289;42.688;23.330;2022-10-31T04:30:15;15.70;;;4.47;;
46561;SDS011;32289;42.688;23.330;2022-10-31T04:33:56;12.60;;;4.70;;
46561;SDS011;32289;42.688;23.330;2022-10-31T04:37:37;11.15;;;4.28;;
46561;SDS011;32289;42.688;23.330;2022-10-31T04:41:17;10.48;;;4.07;;
46561;SDS011;32289;42.688;23.330;2022-10-31T04:44:58;9.82;;;4.13;;
46561;SDS011;32289;42.688;23.330;2022-10-31T04:48:39;9.13;;;4.47;;
46561;SDS011;32289;42.688;23.330;2022-10-31T04:52:19;12.55;;;3.92;;
46561;SDS011;32289;42.688;23.330;2022-10-31T04:56:00;9.75;;;4.00;;
46561;SDS011;32289;42.688;23.330;2022-10-31T04:59:41;10.73;;;4.85;;
46561;SDS011;32289;42.688;23.330;2022-10-31T05:03:22;7.75;;;3.80;;
46561;SDS011;32289;42.688;23.330;2022-10-31T05:07:02;9.30;;;4.38;;
46561;SDS011;32289;42.688;23.330;2022-10-31T05:10:43;11.75;;;4.47;;
46561;SDS011;32289;42.688;23.330;2022-10-31T05:14:24;7.53;;;4.45;;
46561;SDS011;32289;42.688;23.330;2022-10-31T05:18:04;8.00;;;4.25;;
46561;SDS011;32289;42.688;23.330;2022-10-31T05:21:45;11.60;;;5.28;;
46561;SDS011;32289;42.688;23.330;2022-10-31T05:25:27;8.68;;;4.07;;
46561;SDS011;32289;42.688;23.330;2022-10-31T05:29:09;11.00;;;4.65;;
46561;SDS011;32289;42.688;23.330;2022-10-31T05:32:50;10.75;;;5.35;;
46561;SDS011;32289;42.688;23.330;2022-10-31T05:36:31;9.23;;;4.32;;
46561;SDS011;32289;42.688;23.330;2022-10-31T05:40:13;8.05;;;5.05;;
46561;SDS011;32289;42.688;23.330;2022-10-31T05:43:55;13.15;;;5.43;;
46561;SDS011;32289;42.688;23.330;2022-10-31T05:47:36;44.08;;;6.30;;
46561;SDS011;32289;42.688;23.330;2022-10-31T05:51:16;9.95;;;5.00;;
46561;SDS011;32289;42.688;23.330;2022-10-31T05:54:57;15.18;;;5.72;;
46561;SDS011;32289;42.688;23.330;2022-10-31T05:58:38;13.65;;;6.28;;
46561;SDS011;32289;42.688;23.330;2022-10-31T06:02:20;13.25;;;6.25;;
46561;SDS011;32289;42.688;23.330;2022-10-31T06:06:01;14.27;;;6.20;;
46561;SDS011;32289;42.688;23.330;2022-10-31T06:09:41;14.85;;;5.80;;
46561;SDS011;32289;42.688;23.330;2022-10-31T06:13:22;10.90;;;5.65;;
46561;SDS011;32289;42.688;23.330;2022-10-31T06:17:03;12.45;;;6.10;;
46561;SDS011;32289;42.688;23.330;2022-10-31T06:20:44;11.18;;;5.30;;
46561;SDS011;32289;42.688;23.330;2022-10-31T06:24:24;13.13;;;5.95;;
46561;SDS011;32289;42.688;23.330;2022-10-31T06:28:05;12.45;;;6.50;;
46561;SDS011;32289;42.688;23.330;2022-10-31T06:31:46;15.48;;;6.03;;
46561;SDS011;32289;42.688;23.330;2022-10-31T06:35:27;12.55;;;5.88;;
46561;SDS011;32289;42.688;23.330;2022-10-31T06:39:07;12.48;;;6.20;;
46561;SDS011;32289;42.688;23.330;2022-10-31T06:43:09;13.13;;;5.55;;
46561;SDS011;32289;42.688;23.330;2022-10-31T06:46:51;14.65;;;4.80;;
46561;SDS011;32289;42.688;23.330;2022-10-31T06:50:31;15.02;;;6.13;;
46561;SDS011;32289;42.688;23.330;2022-10-31T06:54:15;14.70;;;4.57;;
46561;SDS011;32289;42.688;23.330;2022-10-31T06:57:58;16.20;;;7.47;;
46561;SDS011;32289;42.688;23.330;2022-10-31T07:01:39;12.30;;;5.90;;
46561;SDS011;32289;42.688;23.330;2022-10-31T07:05:20;14.65;;;6.05;;
46561;SDS011;32289;42.688;23.330;2022-10-31T07:09:01;17.10;;;6.50;;
46561;SDS011;32289;42.688;23.330;2022-10-31T07:12:42;17.40;;;6.20;;
46561;SDS011;32289;42.688;23.330;2022-10-31T07:16:23;10.55;;;6.35;;
46561;SDS011;32289;42.688;23.330;2022-10-31T07:20:04;14.90;;;6.20;;
46561;SDS011;32289;42.688;23.330;2022-10-31T07:23:48;11.95;;;6.30;;
46561;SDS011;32289;42.688;23.330;2022-10-31T07:27:34;14.38;;;6.82;;
46561;SDS011;32289;42.688;23.330;2022-10-31T07:35:13;13.85;;;7.40;;
46561;SDS011;32289;42.688;23.330;2022-10-31T07:38:59;16.17;;;8.13;;
46561;SDS011;32289;42.688;23.330;2022-10-31T07:42:41;15.35;;;7.60;;
46561;SDS011;32289;42.688;23.330;2022-10-31T07:46:23;12.75;;;6.65;;
46561;SDS011;32289;42.688;23.330;2022-10-31T07:50:04;13.18;;;6.63;;
46561;SDS011;32289;42.688;23.330;2022-10-31T07:53:45;15.68;;;7.10;;
46561;SDS011;32289;42.688;23.330;2022-10-31T07:57:26;15.48;;;7.40;;
46561;SDS011;32289;42.688;23.330;2022-10-31T08:01:07;12.93;;;7.18;;
46561;SDS011;32289;42.688;23.330;2022-10-31T08:04:48;18.33;;;6.55;;
46561;SDS011;32289;42.688;23.330;2022-10-31T08:08:29;12.93;;;7.10;;
46561;SDS011;32289;42.688;23.330;2022-10-31T08:12:09;21.48;;;10.40;;
46561;SDS011;32289;42.688;23.330;2022-10-31T08:15:50;12.00;;;6.43;;
46561;SDS011;32289;42.688;23.330;2022-10-31T08:19:34;13.95;;;7.25;;
46561;SDS011;32289;42.688;23.330;2022-10-31T08:23:15;15.05;;;6.72;;
46561;SDS011;32289;42.688;23.330;2022-10-31T08:26:56;14.48;;;7.22;;
46561;SDS011;32289;42.688;23.330;2022-10-31T08:30:37;12.85;;;6.72;;
46561;SDS011;32289;42.688;23.330;2022-10-31T08:34:18;15.70;;;7.82;;
46561;SDS011;32289;42.688;23.330;2022-10-31T08:37:59;12.88;;;6.97;;
46561;SDS011;32289;42.688;23.330;2022-10-31T08:41:40;12.95;;;7.50;;
46561;SDS011;32289;42.688;23.330;2022-10-31T08:45:21;13.27;;;7.35;;
46561;SDS011;32289;42.688;23.330;2022-10-31T08:49:03;15.02;;;7.93;;
46561;SDS011;32289;42.688;23.330;2022-10-31T08:52:44;14.85;;;7.65;;
46561;SDS011;32289;42.688;23.330;2022-10-31T08:56:24;16.05;;;7.60;;
46561;SDS011;32289;42.688;23.330;2022-10-31T09:00:05;13.82;;;6.97;;
46561;SDS011;32289;42.688;23.330;2022-10-31T09:03:47;10.50;;;7.22;;
46561;SDS011;32289;42.688;23.330;2022-10-31T09:07:27;11.95;;;7.25;;
46561;SDS011;32289;42.688;23.330;2022-10-31T09:11:08;10.27;;;6.43;;
46561;SDS011;32289;42.688;23.330;2022-10-31T09:14:49;10.35;;;6.32;;
46561;SDS011;32289;42.688;23.330;2022-10-31T09:18:30;10.40;;;7.25;;
46561;SDS011;32289;42.688;23.330;2022-10-31T09:22:11;9.63;;;7.07;;
46561;SDS011;32289;42.688;23.330;2022-10-31T09:25:52;14.02;;;7.55;;
46561;SDS011;32289;42.688;23.330;2022-10-31T09:29:34;14.60;;;6.80;;
46561;SDS011;32289;42.688;23.330;2022-10-31T09:33:15;12.80;;;6.45;;
46561;SDS011;32289;42.688;23.330;2022-10-31T09:36:56;12.48;;;6.18;;
46561;SDS011;32289;42.688;23.330;2022-10-31T09:44:23;10.65;;;7.00;;
46561;SDS011;32289;42.688;23.330;2022-10-31T09:52:21;11.43;;;4.53;;
46561;SDS011;32289;42.688;23.330;2022-10-31T09:56:11;10.80;;;5.57;;
46561;SDS011;32289;42.688;23.330;2022-10-31T09:59:55;8.93;;;4.38;;
46561;SDS011;32289;42.688;23.330;2022-10-31T10:03:40;8.90;;;5.68;;
46561;SDS011;32289;42.688;23.330;2022-10-31T10:07:38;8.90;;;4.63;;
46561;SDS011;32289;42.688;23.330;2022-10-31T10:15:32;7.22;;;4.22;;
46561;SDS011;32289;42.688;23.330;2022-10-31T10:19:35;6.85;;;3.38;;
46561;SDS011;32289;42.688;23.330;2022-10-31T10:27:47;8.35;;;4.57;;
46561;SDS011;32289;42.688;23.330;2022-10-31T10:32:00;6.70;;;3.42;;
46561;SDS011;32289;42.688;23.330;2022-10-31T10:35:47;4.50;;;3.22;;
46561;SDS011;32289;42.688;23.330;2022-10-31T10:39:46;6.57;;;3.13;;
46561;SDS011;32289;42.688;23.330;2022-10-31T10:43:33;6.38;;;3.45;;
46561;SDS011;32289;42.688;23.330;2022-10-31T10:47:15;6.82;;;2.30;;
46561;SDS011;32289;42.688;23.330;2022-10-31T10:51:27;7.45;;;3.72;;
46561;SDS011;32289;42.688;23.330;2022-10-31T10:59:19;7.95;;;5.38;;
46561;SDS011;32289;42.688;23.330;2022-10-31T11:03:01;6.65;;;2.53;;
46561;SDS011;32289;42.688;23.330;2022-10-31T11:06:43;4.63;;;2.88;;
46561;SDS011;32289;42.688;23.330;2022-10-31T11:10:23;8.10;;;4.88;;
46561;SDS011;32289;42.688;23.330;2022-10-31T11:14:05;6.55;;;2.95;;
46561;SDS011;32289;42.688;23.330;2022-10-31T11:17:54;5.50;;;3.25;;
46561;SDS011;32289;42.688;23.330;2022-10-31T11:21:36;6.45;;;3.15;;
46561;SDS011;32289;42.688;23.330;2022-10-31T11:29:01;4.53;;;2.17;;
46561;SDS011;32289;42.688;23.330;2022-10-31T11:32:44;6.63;;;2.30;;
46561;SDS011;32289;42.688;23.330;2022-10-31T11:36:30;9.75;;;5.18;;
46561;SDS011;32289;42.688;23.330;2022-10-31T11:43:59;5.85;;;2.40;;
46561;SDS011;32289;42.688;23.330;2022-10-31T11:47:44;4.10;;;2.05;;
46561;SDS011;32289;42.688;23.330;2022-10-31T11:51:31;12.00;;;2.67;;
46561;SDS011;32289;42.688;23.330;2022-10-31T11:55:16;3.83;;;2.17;;
46561;SDS011;32289;42.688;23.330;2022-10-31T11:59:18;5.55;;;1.80;;
46561;SDS011;32289;42.688;23.330;2022-10-31T12:07:00;7.03;;;3.10;;
46561;SDS011;32289;42.688;23.330;2022-10-31T12:22:06;11.85;;;4.85;;
46561;SDS011;32289;42.688;23.330;2022-10-31T12:30:13;8.52;;;3.25;;
46561;SDS011;32289;42.688;23.330;2022-10-31T12:46:14;8.27;;;3.95;;
46561;SDS011;32289;42.688;23.330;2022-10-31T12:50:10;5.07;;;2.25;;
46561;SDS011;32289;42.688;23.330;2022-10-31T12:58:14;13.05;;;3.20;;
46561;SDS011;32289;42.688;23.330;2022-10-31T13:06:06;11.30;;;2.97;;
46561;SDS011;32289;42.688;23.330;2022-10-31T13:10:01;8.48;;;3.08;;
46561;SDS011;32289;42.688;23.330;2022-10-31T13:13:54;8.05;;;3.95;;
46561;SDS011;32289;42.688;23.330;2022-10-31T13:17:47;6.55;;;2.25;;
46561;SDS011;32289;42.688;23.330;2022-10-31T13:25:31;11.50;;;4.95;;
46561;SDS011;32289;42.688;23.330;2022-10-31T13:37:21;5.72;;;2.60;;
46561;SDS011;32289;42.688;23.330;2022-10-31T13:41:43;6.97;;;3.25;;
46561;SDS011;32289;42.688;23.330;2022-10-31T13:45:50;3.35;;;1.70;;
46561;SDS011;32289;42.688;23.330;2022-10-31T13:53:20;8.00;;;1.80;;
46561;SDS011;32289;42.688;23.330;2022-10-31T13:57:06;3.35;;;1.70;;
46561;SDS011;32289;42.688;23.330;2022-10-31T14:01:19;11.50;;;2.20;;
46561;SDS011;32289;42.688;23.330;2022-10-31T14:05:04;10.50;;;4.28;;
46561;SDS011;32289;42.688;23.330;2022-10-31T14:09:03;5.80;;;2.50;;
46561;SDS011;32289;42.688;23.330;2022-10-31T14:12:44;7.30;;;3.10;;
46561;SDS011;32289;42.688;23.330;2022-10-31T14:16:30;10.63;;;2.15;;
46561;SDS011;32289;42.688;23.330;2022-10-31T14:23:59;6.65;;;1.60;;
46561;SDS011;32289;42.688;23.330;2022-10-31T14:27:44;4.75;;;1.67;;
46561;SDS011;32289;42.688;23.330;2022-10-31T14:35:13;10.02;;;3.90;;
46561;SDS011;32289;42.688;23.330;2022-10-31T14:38:58;9.38;;;4.80;;
46561;SDS011;32289;42.688;23.330;2022-10-31T14:50:56;9.48;;;4.20;;
46561;SDS011;32289;42.688;23.330;2022-10-31T14:54:43;9.75;;;3.33;;
46561;SDS011;32289;42.688;23.330;2022-10-31T14:58:42;4.80;;;2.58;;
46561;SDS011;32289;42.688;23.330;2022-10-31T15:02:30;15.52;;;8.48;;
46561;SDS011;32289;42.688;23.330;2022-10-31T15:06:27;19.38;;;8.02;;
46561;SDS011;32289;42.688;23.330;2022-10-31T15:10:21;11.65;;;5.80;;
46561;SDS011;32289;42.688;23.330;2022-10-31T15:18:03;12.18;;;5.90;;
46561;SDS011;32289;42.688;23.330;2022-10-31T15:21:45;10.52;;;4.32;;
46561;SDS011;32289;42.688;23.330;2022-10-31T15:25:27;11.40;;;3.58;;
46561;SDS011;32289;42.688;23.330;2022-10-31T15:29:14;19.92;;;7.30;;
46561;SDS011;32289;42.688;23.330;2022-10-31T15:32:56;15.85;;;6.03;;
46561;SDS011;32289;42.688;23.330;2022-10-31T15:36:37;12.30;;;7.18;;
46561;SDS011;32289;42.688;23.330;2022-10-31T15:40:19;16.33;;;7.55;;
46561;SDS011;32289;42.688;23.330;2022-10-31T15:44:10;18.88;;;7.63;;
46561;SDS011;32289;42.688;23.330;2022-10-31T15:48:16;14.25;;;5.50;;
46561;SDS011;32289;42.688;23.330;2022-10-31T15:52:33;10.57;;;3.80;;
46561;SDS011;32289;42.688;23.330;2022-10-31T15:56:19;21.95;;;5.15;;
46561;SDS011;32289;42.688;23.330;2022-10-31T16:00:03;10.75;;;4.95;;
46561;SDS011;32289;42.688;23.330;2022-10-31T16:03:44;20.30;;;8.55;;
46561;SDS011;32289;42.688;23.330;2022-10-31T16:07:36;10.57;;;5.10;;
46561;SDS011;32289;42.688;23.330;2022-10-31T16:11:35;12.20;;;5.22;;
46561;SDS011;32289;42.688;23.330;2022-10-31T16:15:18;12.02;;;6.35;;
46561;SDS011;32289;42.688;23.330;2022-10-31T16:19:01;20.00;;;5.60;;
46561;SDS011;32289;42.688;23.330;2022-10-31T16:22:46;11.77;;;5.05;;
46561;SDS011;32289;42.688;23.330;2022-10-31T16:26:29;14.77;;;4.53;;
46561;SDS011;32289;42.688;23.330;2022-10-31T16:34:21;11.95;;;5.20;;
46561;SDS011;32289;42.688;23.330;2022-10-31T16:38:03;23.35;;;5.75;;
46561;SDS011;32289;42.688;23.330;2022-10-31T16:41:45;17.70;;;5.10;;
46561;SDS011;32289;42.688;23.330;2022-10-31T16:45:29;18.02;;;5.95;;
46561;SDS011;32289;42.688;23.330;2022-10-31T16:49:11;20.08;;;8.40;;
46561;SDS011;32289;42.688;23.330;2022-10-31T16:52:52;14.43;;;5.75;;
46561;SDS011;32289;42.688;23.330;2022-10-31T16:56:34;12.23;;;5.22;;
46561;SDS011;32289;42.688;23.330;2022-10-31T17:00:19;17.40;;;5.78;;
46561;SDS011;32289;42.688;23.330;2022-10-31T17:04:02;26.75;;;9.00;;
46561;SDS011;32289;42.688;23.330;2022-10-31T17:07:43;17.80;;;6.70;;
46561;SDS011;32289;42.688;23.330;2022-10-31T17:11:24;25.27;;;6.63;;
46561;SDS011;32289;42.688;23.330;2022-10-31T17:15:06;22.23;;;8.27;;
46561;SDS011;32289;42.688;23.330;2022-10-31T17:19:02;17.90;;;7.68;;
46561;SDS011;32289;42.688;23.330;2022-10-31T17:22:43;35.22;;;9.52;;
46561;SDS011;32289;42.688;23.330;2022-10-31T17:26:24;28.73;;;12.55;;
46561;SDS011;32289;42.688;23.330;2022-10-31T17:30:04;25.10;;;9.50;;
46561;SDS011;32289;42.688;23.330;2022-10-31T17:33:45;31.55;;;12.60;;
46561;SDS011;32289;42.688;23.330;2022-10-31T17:37:26;26.45;;;8.20;;
46561;SDS011;32289;42.688;23.330;2022-10-31T17:41:07;20.63;;;9.25;;
46561;SDS011;32289;42.688;23.330;2022-10-31T17:44:48;22.83;;;7.88;;
46561;SDS011;32289;42.688;23.330;2022-10-31T17:48:29;14.98;;;6.50;;
46561;SDS011;32289;42.688;23.330;2022-10-31T17:52:12;14.93;;;5.82;;
46561;SDS011;32289;42.688;23.330;2022-10-31T17:55:53;19.17;;;9.35;;
46561;SDS011;32289;42.688;23.330;2022-10-31T17:59:33;21.60;;;7.30;;
46561;SDS011;32289;42.688;23.330;2022-10-31T18:03:14;15.13;;;6.00;;
46561;SDS011;32289;42.688;23.330;2022-10-31T18:06:58;18.58;;;6.00;;
46561;SDS011;32289;42.688;23.330;2022-10-31T18:10:39;26.75;;;6.95;;
46561;SDS011;32289;42.688;23.330;2022-10-31T18:14:20;15.15;;;6.28;;
46561;SDS011;32289;42.688;23.330;2022-10-31T18:18:02;15.05;;;5.85;;
46561;SDS011;32289;42.688;23.330;2022-10-31T18:21:44;23.23;;;7.07;;
46561;SDS011;32289;42.688;23.330;2022-10-31T18:25:25;15.63;;;6.93;;
46561;SDS011;32289;42.688;23.330;2022-10-31T18:29:06;11.30;;;4.70;;
46561;SDS011;32289;42.688;23.330;2022-10-31T18:32:49;12.20;;;5.70;;
46561;SDS011;32289;42.688;23.330;2022-10-31T18:36:30;14.45;;;5.93;;
46561;SDS011;32289;42.688;23.330;2022-10-31T18:40:11;14.98;;;6.13;;
46561;SDS011;32289;42.688;23.330;2022-10-31T18:43:55;21.67;;;6.13;;
46561;SDS011;32289;42.688;23.330;2022-10-31T18:47:38;15.32;;;5.90;;
46561;SDS011;32289;42.688;23.330;2022-10-31T18:51:19;19.17;;;5.55;;
46561;SDS011;32289;42.688;23.330;2022-10-31T18:55:00;13.80;;;5.60;;
46561;SDS011;32289;42.688;23.330;2022-10-31T18:58:41;21.95;;;8.57;;
46561;SDS011;32289;42.688;23.330;2022-10-31T19:02:23;19.70;;;8.82;;
46561;SDS011;32289;42.688;23.330;2022-10-31T19:06:04;13.48;;;6.43;;
46561;SDS011;32289;42.688;23.330;2022-10-31T19:09:47;16.35;;;6.38;;
46561;SDS011;32289;42.688;23.330;2022-10-31T19:13:27;19.67;;;6.47;;
46561;SDS011;32289;42.688;23.330;2022-10-31T19:17:08;20.73;;;7.03;;
46561;SDS011;32289;42.688;23.330;2022-10-31T19:20:49;21.90;;;6.88;;
46561;SDS011;32289;42.688;23.330;2022-10-31T19:24:30;31.33;;;10.55;;
46561;SDS011;32289;42.688;23.330;2022-10-31T19:28:10;17.35;;;6.72;;
46561;SDS011;32289;42.688;23.330;2022-10-31T19:31:51;12.63;;;6.43;;
46561;SDS011;32289;42.688;23.330;2022-10-31T19:35:32;20.15;;;6.43;;
46561;SDS011;32289;42.688;23.330;2022-10-31T19:39:13;20.88;;;5.80;;
46561;SDS011;32289;42.688;23.330;2022-10-31T19:42:53;17.30;;;6.35;;
46561;SDS011;32289;42.688;23.330;2022-10-31T19:46:34;14.02;;;5.25;;
46561;SDS011;32289;42.688;23.330;2022-10-31T19:50:15;15.90;;;6.20;;
46561;SDS011;32289;42.688;23.330;2022-10-31T19:53:56;21.02;;;6.25;;
46561;SDS011;32289;42.688;23.330;2022-10-31T19:57:36;8.40;;;4.20;;
46561;SDS011;32289;42.688;23.330;2022-10-31T20:01:18;13.38;;;5.53;;
46561;SDS011;32289;42.688;23.330;2022-10-31T20:05:01;16.15;;;5.97;;
46561;SDS011;32289;42.688;23.330;2022-10-31T20:08:41;12.55;;;5.18;;
46561;SDS011;32289;42.688;23.330;2022-10-31T20:12:22;8.70;;;4.43;;
46561;SDS011;32289;42.688;23.330;2022-10-31T20:16:05;15.82;;;4.50;;
46561;SDS011;32289;42.688;23.330;2022-10-31T20:19:47;13.88;;;4.65;;
46561;SDS011;32289;42.688;23.330;2022-10-31T20:23:28;17.15;;;6.05;;
46561;SDS011;32289;42.688;23.330;2022-10-31T20:27:08;12.73;;;5.72;;
46561;SDS011;32289;42.688;23.330;2022-10-31T20:30:49;14.93;;;5.20;;
46561;SDS011;32289;42.688;23.330;2022-10-31T20:34:31;11.98;;;5.57;;
46561;SDS011;32289;42.688;23.330;2022-10-31T20:38:11;18.67;;;6.40;;
46561;SDS011;32289;42.688;23.330;2022-10-31T20:41:52;9.75;;;4.65;;
46561;SDS011;32289;42.688;23.330;2022-10-31T20:45:33;19.02;;;4.97;;
46561;SDS011;32289;42.688;23.330;2022-10-31T20:49:14;9.05;;;5.30;;
46561;SDS011;32289;42.688;23.330;2022-10-31T20:52:55;18.50;;;4.68;;
46561;SDS011;32289;42.688;23.330;2022-10-31T20:56:35;6.78;;;2.83;;
46561;SDS011;32289;42.688;23.330;2022-10-31T21:00:16;12.15;;;3.47;;
46561;SDS011;32289;42.688;23.330;2022-10-31T21:03:58;8.35;;;3.92;;
46561;SDS011;32289;42.688;23.330;2022-10-31T21:07:39;11.85;;;3.83;;
46561;SDS011;32289;42.688;23.330;2022-10-31T21:11:21;12.98;;;5.07;;
46561;SDS011;32289;42.688;23.330;2022-10-31T21:15:03;9.65;;;4.20;;
46561;SDS011;32289;42.688;23.330;2022-10-31T21:18:44;12.63;;;4.80;;
46561;SDS011;32289;42.688;23.330;2022-10-31T21:22:28;13.30;;;5.07;;
46561;SDS011;32289;42.688;23.330;2022-10-31T21:26:16;12.25;;;6.20;;
46561;SDS011;32289;42.688;23.330;2022-10-31T21:29:59;11.63;;;5.35;;
46561;SDS011;32289;42.688;23.330;2022-10-31T21:33:42;18.00;;;5.60;;
46561;SDS011;32289;42.688;23.330;2022-10-31T21:37:23;19.15;;;6.53;;
46561;SDS011;32289;42.688;23.330;2022-10-31T21:41:05;17.88;;;5.50;;
46561;SDS011;32289;42.688;23.330;2022-10-31T21:44:48;14.35;;;5.53;;
46561;SDS011;32289;42.688;23.330;2022-10-31T21:48:29;11.75;;;6.68;;
46561;SDS011;32289;42.688;23.330;2022-10-31T21:52:10;14.23;;;4.28;;
46561;SDS011;32289;42.688;23.330;2022-10-31T21:55:51;13.18;;;5.47;;
46561;SDS011;32289;42.688;23.330;2022-10-31T21:59:31;11.43;;;5.47;;
46561;SDS011;32289;42.688;23.330;2022-10-31T22:03:12;18.73;;;5.53;;
46561;SDS011;32289;42.688;23.330;2022-10-31T22:06:53;12.48;;;4.20;;
46561;SDS011;32289;42.688;23.330;2022-10-31T22:10:34;11.55;;;5.15;;
46561;SDS011;32289;42.688;23.330;2022-10-31T22:14:14;14.10;;;5.45;;
46561;SDS011;32289;42.688;23.330;2022-10-31T22:17:55;12.57;;;4.43;;
46561;SDS011;32289;42.688;23.330;2022-10-31T22:21:45;15.27;;;5.40;;
46561;SDS011;32289;42.688;23.330;2022-10-31T22:25:27;13.45;;;4.57;;
46561;SDS011;32289;42.688;23.330;2022-10-31T22:29:09;11.10;;;4.93;;
46561;SDS011;32289;42.688;23.330;2022-10-31T22:32:51;10.93;;;4.25;;
46561;SDS011;32289;42.688;23.330;2022-10-31T22:36:32;7.10;;;4.20;;
46561;SDS011;32289;42.688;23.330;2022-10-31T22:40:13;8.00;;;3.28;;
46561;SDS011;32289;42.688;23.330;2022-10-31T22:43:55;9.23;;;4.28;;
46561;SDS011;32289;42.688;23.330;2022-10-31T22:47:38;7.68;;;3.88;;
46561;SDS011;32289;42.688;23.330;2022-10-31T22:51:33;8.07;;;3.88;;
46561;SDS011;32289;42.688;23.330;2022-10-31T22:55:16;10.88;;;4.50;;
46561;SDS011;32289;42.688;23.330;2022-10-31T22:58:57;8.13;;;3.92;;
46561;SDS011;32289;42.688;23.330;2022-10-31T23:02:38;8.10;;;3.90;;
46561;SDS011;32289;42.688;23.330;2022-10-31T23:06:20;9.80;;;3.97;;
46561;SDS011;32289;42.688;23.330;2022-10-31T23:10:02;12.98;;;4.43;;
46561;SDS011;32289;42.688;23.330;2022-10-31T23:13:44;13.55;;;4.32;;
46561;SDS011;32289;42.688;23.330;2022-10-31T23:17:44;12.55;;;4.63;;
46561;SDS011;32289;42.688;23.330;2022-10-31T23:21:25;11.43;;;5.43;;
46561;SDS011;32289;42.688;23.330;2022-10-31T23:25:22;14.65;;;4.28;;
46561;SDS011;32289;42.688;23.330;2022-10-31T23:29:22;10.93;;;4.95;;
46561;SDS011;32289;42.688;23.330;2022-10-31T23:33:02;13.63;;;4.95;;
46561;SDS011;32289;42.688;23.330;2022-10-31T23:36:43;11.55;;;4.22;;
46561;SDS011;32289;42.688;23.330;2022-10-31T23:40:23;13.93;;;4.88;;
46561;SDS011;32289;42.688;23.330;2022-10-31T23:44:04;10.38;;;4.72;;
46561;SDS011;32289;42.688;23.330;2022-10-31T23:47:45;11.98;;;5.30;;
46561;SDS011;32289;42.688;23.330;2022-10-31T23:51:25;9.55;;;4.90;;
46561;SDS011;32289;42.688;23.330;2022-10-31T23:55:06;11.23;;;4.78;;
46561;SDS011;32289;42.688;23.330;2022-10-31T23:58:47;12.90;;;5.63;;
